createdAt,value
2022-09-07T00:02:20.999Z,19.90
2022-09-07T00:04:47.704Z,19.90
2022-09-07T00:07:14.501Z,20.00
2022-09-07T00:09:41.390Z,20.00
2022-09-07T00:12:08.105Z,20.00
2022-09-07T00:14:35.119Z,19.90
2022-09-07T00:17:01.811Z,19.90
2022-09-07T00:19:28.513Z,19.90
2022-09-07T00:21:55.223Z,19.90
2022-09-07T00:24:21.899Z,19.90
2022-09-07T00:26:48.639Z,19.90
2022-09-07T00:29:15.364Z,19.90
2022-09-07T00:31:42.161Z,19.90
2022-09-07T00:34:09.008Z,19.90
2022-09-07T00:36:35.770Z,19.90
2022-09-07T00:39:02.571Z,19.80
2022-09-07T00:41:29.354Z,19.80
2022-09-07T00:43:59.233Z,19.80
2022-09-07T00:46:31.270Z,19.80
2022-09-07T00:49:16.234Z,19.90
2022-09-07T00:51:48.523Z,19.90
2022-09-07T00:54:20.420Z,19.90
2022-09-07T00:56:49.022Z,19.90
2022-09-07T00:59:19.817Z,19.90
2022-09-07T01:01:46.665Z,19.90
2022-09-07T01:04:14.278Z,19.90
2022-09-07T01:06:42.479Z,19.90
2022-09-07T01:09:19.545Z,19.90
2022-09-07T01:11:50.917Z,19.90
2022-09-07T01:14:22.761Z,19.90
2022-09-07T01:17:08.200Z,20.00
2022-09-07T01:20:00.194Z,20.00
2022-09-07T01:22:39.029Z,20.00
2022-09-07T01:25:51.061Z,20.00
2022-09-07T01:28:21.398Z,20.00
2022-09-07T01:31:01.436Z,20.00
2022-09-07T01:33:51.840Z,20.00
2022-09-07T01:36:50.417Z,20.00
2022-09-07T01:39:19.277Z,20.00
2022-09-07T01:41:57.712Z,20.00
2022-09-07T01:44:37.139Z,20.00
2022-09-07T01:47:22.407Z,20.00
2022-09-07T01:50:21.065Z,20.00
2022-09-07T01:52:57.416Z,20.00
2022-09-07T01:55:39.285Z,19.90
2022-09-07T01:58:18.008Z,19.90
2022-09-07T02:00:50.850Z,20.00
2022-09-07T02:03:53.131Z,20.00
2022-09-07T02:06:26.651Z,20.00
2022-09-07T02:09:00.993Z,20.00
2022-09-07T02:11:40.337Z,20.00
2022-09-07T02:14:13.912Z,20.00
2022-09-07T02:17:12.244Z,20.20
2022-09-07T02:19:46.495Z,20.20
2022-09-07T02:22:17.033Z,20.20
2022-09-07T02:24:48.116Z,20.20
2022-09-07T02:27:24.451Z,20.00
2022-09-07T02:29:52.121Z,19.90
2022-09-07T02:32:19.133Z,19.80
2022-09-07T02:34:46.452Z,19.80
2022-09-07T02:37:15.333Z,19.70
2022-09-07T02:39:42.200Z,19.70
2022-09-07T02:42:09.736Z,19.60
2022-09-07T02:44:38.849Z,19.70
2022-09-07T02:47:32.275Z,19.60
2022-09-07T02:50:01.941Z,19.60
2022-09-07T02:52:42.429Z,19.60
2022-09-07T02:55:37.081Z,19.40
2022-09-07T02:58:40.719Z,19.30
2022-09-07T03:01:33.141Z,19.20
2022-09-07T03:04:05.772Z,19.20
2022-09-07T03:06:38.958Z,19.10
2022-09-07T03:09:11.192Z,19.10
2022-09-07T03:11:38.166Z,19.00
2022-09-07T03:14:18.018Z,19.00
2022-09-07T03:16:44.938Z,19.00
2022-09-07T03:19:11.716Z,18.90
2022-09-07T03:21:38.419Z,18.90
2022-09-07T03:24:05.552Z,18.90
2022-09-07T03:26:32.603Z,18.90
2022-09-07T03:28:59.748Z,18.90
2022-09-07T03:31:26.478Z,18.90
2022-09-07T03:33:54.454Z,18.90
2022-09-07T03:36:21.276Z,18.90
2022-09-07T03:38:47.939Z,18.80
2022-09-07T03:41:14.625Z,18.80
2022-09-07T03:43:41.299Z,18.80
2022-09-07T03:46:10.294Z,18.80
2022-09-07T03:48:39.194Z,18.80
2022-09-07T03:51:11.504Z,18.80
2022-09-07T03:53:40.832Z,18.70
2022-09-07T03:56:10.998Z,18.80
2022-09-07T03:58:38.709Z,18.70
2022-09-07T04:01:11.449Z,18.60
2022-09-07T04:03:39.513Z,18.50
2022-09-07T04:06:06.611Z,18.50
2022-09-07T04:08:35.047Z,18.50
2022-09-07T04:11:04.616Z,18.30
2022-09-07T04:13:31.626Z,18.10
2022-09-07T04:15:58.515Z,18.00
2022-09-07T04:18:25.750Z,18.00
2022-09-07T04:20:52.509Z,18.10
2022-09-07T04:23:20.136Z,18.00
2022-09-07T04:25:52.110Z,17.90
2022-09-07T04:28:20.573Z,17.80
2022-09-07T04:30:47.825Z,17.70
2022-09-07T04:33:14.750Z,17.70
2022-09-07T04:35:42.639Z,17.70
2022-09-07T04:38:13.923Z,17.70
2022-09-07T04:40:40.765Z,17.70
2022-09-07T04:43:09.451Z,17.70
2022-09-07T04:45:37.246Z,17.70
2022-09-07T04:48:04.773Z,17.60
2022-09-07T04:50:31.997Z,17.60
2022-09-07T04:52:58.697Z,17.60
2022-09-07T04:55:25.634Z,17.60
2022-09-07T04:57:52.351Z,17.60
2022-09-07T05:00:19.493Z,17.60
2022-09-07T05:02:46.259Z,17.60
2022-09-07T05:05:13.094Z,17.70
2022-09-07T05:07:39.891Z,17.60
2022-09-07T05:10:06.814Z,17.60
2022-09-07T05:12:33.538Z,17.60
2022-09-07T05:15:00.366Z,17.70
2022-09-07T05:17:27.233Z,17.70
2022-09-07T05:19:55.065Z,17.70
2022-09-07T05:22:22.741Z,17.60
2022-09-07T05:24:49.493Z,17.50
2022-09-07T05:27:16.320Z,17.60
2022-09-07T05:32:29.874Z,17.50
2022-09-07T05:34:56.624Z,17.50
2022-09-07T05:37:23.853Z,17.50
2022-09-07T05:39:52.352Z,17.60
2022-09-07T05:42:19.116Z,17.70
2022-09-07T05:44:46.121Z,17.60
2022-09-07T05:47:13.774Z,17.70
2022-09-07T05:49:40.693Z,17.70
2022-09-07T05:52:07.761Z,17.90
2022-09-07T05:54:34.898Z,18.10
2022-09-07T05:57:03.555Z,18.10
2022-09-07T05:59:30.689Z,18.20
2022-09-07T06:01:57.453Z,18.20
2022-09-07T06:04:24.268Z,18.20
2022-09-07T06:07:20.182Z,18.20
2022-09-07T06:12:25.710Z,18.20
2022-09-07T06:14:55.401Z,18.20
2022-09-07T06:17:22.179Z,18.20
2022-09-07T06:19:51.752Z,18.20
2022-09-07T06:22:18.466Z,18.20
2022-09-07T06:24:45.122Z,18.10
2022-09-07T06:27:11.838Z,18.10
2022-09-07T06:29:38.750Z,18.20
2022-09-07T06:34:52.299Z,18.40
2022-09-07T06:37:18.984Z,18.70
2022-09-07T06:39:45.793Z,18.90
2022-09-07T06:42:12.553Z,18.90
2022-09-07T06:44:43.418Z,18.90
2022-09-07T06:47:10.657Z,18.80
2022-09-07T06:49:38.806Z,18.90
2022-09-07T06:52:05.548Z,19.00
2022-09-07T06:57:19.015Z,20.00
2022-09-07T06:59:45.690Z,20.30
2022-09-07T07:02:14.940Z,20.30
2022-09-07T07:05:07.330Z,20.30
2022-09-07T07:07:34.486Z,19.80
2022-09-07T07:10:22.197Z,19.60
2022-09-07T07:15:46.476Z,19.40
2022-09-07T07:18:22.215Z,19.50
2022-09-07T07:20:48.956Z,19.40
2022-09-07T07:23:15.631Z,19.40
2022-09-07T07:25:42.422Z,19.50
2022-09-07T07:31:00.375Z,20.10
2022-09-07T07:33:32.266Z,20.40
2022-09-07T07:36:22.300Z,20.70
2022-09-07T07:44:16.915Z,21.20
2022-09-07T07:46:44.158Z,21.50
2022-09-07T07:49:10.838Z,21.70
2022-09-07T07:54:24.134Z,21.70
2022-09-07T07:56:57.913Z,21.50
2022-09-07T07:59:36.038Z,21.90
2022-09-07T08:02:05.355Z,22.00
2022-09-07T08:04:33.733Z,22.00
2022-09-07T08:07:03.442Z,21.80
2022-09-07T08:09:32.793Z,21.60
2022-09-07T08:11:59.441Z,21.40
2022-09-07T08:14:26.104Z,21.60
2022-09-07T08:16:52.737Z,21.70
2022-09-07T08:19:19.522Z,22.30
2022-09-07T08:21:46.146Z,22.30
2022-09-07T08:24:12.824Z,22.20
2022-09-07T08:26:39.457Z,23.20
2022-09-07T08:29:06.101Z,23.50
2022-09-07T08:31:33.019Z,23.20
2022-09-07T08:34:00.146Z,23.50
2022-09-07T08:36:26.933Z,23.60
2022-09-07T08:38:53.930Z,23.90
2022-09-07T08:41:48.522Z,23.50
2022-09-07T08:44:39.219Z,23.20
2022-09-07T08:47:12.486Z,23.50
2022-09-07T08:50:01.214Z,22.90
2022-09-07T08:52:38.140Z,23.60
2022-09-07T08:55:29.582Z,23.30
2022-09-07T08:58:47.585Z,23.10
2022-09-07T09:01:31.359Z,23.10
2022-09-07T09:07:00.456Z,23.20
2022-09-07T09:09:32.177Z,23.50
2022-09-07T09:12:13.986Z,23.70
2022-09-07T09:14:56.628Z,23.80
2022-09-07T09:17:32.293Z,24.90
2022-09-07T09:20:17.518Z,25.90
2022-09-07T09:22:44.774Z,26.40
2022-09-07T09:25:21.197Z,25.70
2022-09-07T09:27:49.404Z,25.90
2022-09-07T09:30:22.600Z,25.90
2022-09-07T09:32:52.717Z,25.90
2022-09-07T09:35:34.758Z,26.00
2022-09-07T09:38:03.656Z,26.20
2022-09-07T09:40:32.997Z,26.40
2022-09-07T09:43:17.367Z,26.80
2022-09-07T09:48:40.358Z,26.80
2022-09-07T09:53:59.649Z,25.90
2022-09-07T09:56:40.868Z,25.60
2022-09-07T10:05:39.290Z,25.90
2022-09-07T10:08:19.933Z,26.20
2022-09-07T10:11:01.308Z,26.50
2022-09-07T10:13:32.740Z,26.50
2022-09-07T10:16:03.660Z,26.60
2022-09-07T10:18:35.173Z,26.50
2022-09-07T10:21:21.409Z,27.00
2022-09-07T10:23:58.122Z,26.80
2022-09-07T10:26:33.805Z,26.70
2022-09-07T10:29:36.406Z,26.40
2022-09-07T10:32:23.062Z,26.00
2022-09-07T10:35:27.128Z,26.00
2022-09-07T10:38:03.593Z,26.10
2022-09-07T10:40:43.963Z,25.70
2022-09-07T10:43:45.434Z,25.60
2022-09-07T10:49:19.077Z,25.50
2022-09-07T10:52:14.585Z,25.00
2022-09-07T10:54:52.886Z,24.90
2022-09-07T10:57:49.052Z,24.60
2022-09-07T11:00:18.768Z,25.00
2022-09-07T11:03:32.116Z,25.40
2022-09-07T11:06:16.366Z,26.20
2022-09-07T11:09:21.419Z,26.20
2022-09-07T11:12:05.588Z,26.20
2022-09-07T11:14:55.972Z,26.20
2022-09-07T11:17:27.493Z,26.10
2022-09-07T11:20:03.284Z,26.50
2022-09-07T11:22:46.403Z,26.80
2022-09-07T11:25:31.081Z,26.40
2022-09-07T11:28:26.307Z,25.70
2022-09-07T11:31:00.347Z,25.30
2022-09-07T11:33:35.847Z,25.10
2022-09-07T11:36:12.697Z,25.30
2022-09-07T11:38:59.266Z,25.60
2022-09-07T11:41:32.167Z,26.00
2022-09-07T11:44:14.659Z,26.10
2022-09-07T11:46:45.681Z,26.20
2022-09-07T11:49:20.677Z,25.90
2022-09-07T11:52:09.271Z,25.90
2022-09-07T11:54:45.175Z,25.90
2022-09-07T11:57:14.691Z,26.10
2022-09-07T11:59:47.784Z,26.50
2022-09-07T12:02:58.102Z,26.90
2022-09-07T12:05:53.500Z,27.20
2022-09-07T12:08:26.560Z,27.40
2022-09-07T12:11:23.335Z,27.70
2022-09-07T12:14:04.909Z,27.80
2022-09-07T12:16:54.206Z,28.20
2022-09-07T12:19:24.559Z,28.00
2022-09-07T12:21:51.197Z,27.60
2022-09-07T12:24:41.032Z,27.50
2022-09-07T12:27:19.824Z,27.80
2022-09-07T12:29:48.375Z,28.00
2022-09-07T12:32:54.468Z,28.40
2022-09-07T12:35:28.368Z,28.10
2022-09-07T12:37:56.300Z,28.00
2022-09-07T12:40:28.911Z,27.90
2022-09-07T12:43:17.045Z,28.10
2022-09-07T12:45:43.939Z,28.20
2022-09-07T12:48:16.432Z,28.60
2022-09-07T12:54:31.980Z,29.30
2022-09-07T12:57:40.568Z,29.30
2022-09-07T13:00:35.523Z,28.90
2022-09-07T13:07:08.117Z,29.40
2022-09-07T13:09:39.807Z,29.80
2022-09-07T13:15:45.463Z,29.10
2022-09-07T13:18:27.770Z,28.30
2022-09-07T13:21:52.255Z,27.40
2022-09-07T13:24:50.685Z,27.00
2022-09-07T13:27:26.570Z,27.20
2022-09-07T13:30:01.846Z,27.20
2022-09-07T13:33:09.137Z,27.70
2022-09-07T13:36:22.083Z,27.70
2022-09-07T13:38:58.169Z,28.80
2022-09-07T13:41:52.753Z,29.30
2022-09-07T13:44:52.128Z,29.00
2022-09-07T13:47:21.120Z,29.30
2022-09-07T13:50:35.116Z,29.80
2022-09-07T13:53:19.229Z,30.30
2022-09-07T13:55:57.487Z,30.10
2022-09-07T13:58:33.048Z,29.30
2022-09-07T14:01:07.372Z,29.00
2022-09-07T14:04:07.439Z,28.50
2022-09-07T14:06:35.751Z,29.00
2022-09-07T14:09:18.422Z,30.00
2022-09-07T14:11:48.963Z,29.20
2022-09-07T14:14:19.957Z,28.60
2022-09-07T14:16:54.126Z,27.90
2022-09-07T14:19:30.980Z,28.10
2022-09-07T14:22:08.972Z,28.70
2022-09-07T14:24:51.291Z,29.00
2022-09-07T14:27:42.145Z,29.20
2022-09-07T14:30:16.136Z,28.90
2022-09-07T14:32:44.158Z,29.60
2022-09-07T14:35:13.679Z,30.20
2022-09-07T14:37:40.989Z,30.10
2022-09-07T14:40:15.860Z,29.10
2022-09-07T14:42:43.194Z,28.20
2022-09-07T14:45:32.017Z,27.70
2022-09-07T14:48:01.864Z,27.70
2022-09-07T14:50:41.448Z,28.10
2022-09-07T14:56:09.969Z,27.90
2022-09-07T14:58:36.639Z,28.00
2022-09-07T15:04:17.323Z,28.40
2022-09-07T15:07:02.223Z,28.50
2022-09-07T15:09:38.091Z,28.30
2022-09-07T15:12:24.912Z,27.80
2022-09-07T15:15:22.019Z,28.00
2022-09-07T15:17:49.120Z,28.30
2022-09-07T15:20:48.231Z,28.20
2022-09-07T15:23:16.974Z,28.50
2022-09-07T15:25:50.876Z,28.70
2022-09-07T15:34:02.257Z,28.30
2022-09-07T15:36:32.001Z,27.60
2022-09-07T15:38:59.717Z,27.50
2022-09-07T15:41:27.812Z,27.30
2022-09-07T15:43:55.493Z,27.20
2022-09-07T15:46:25.111Z,27.40
2022-09-07T15:48:54.531Z,27.70
2022-09-07T15:54:13.947Z,27.90
2022-09-07T15:57:48.506Z,28.00
2022-09-07T15:59:31.626Z,28.10
2022-09-07T16:01:58.709Z,28.10
2022-09-07T16:04:25.841Z,27.90
2022-09-07T16:06:52.647Z,27.40
2022-09-07T16:09:21.874Z,26.90
2022-09-07T16:11:50.981Z,26.50
2022-09-07T16:14:18.234Z,26.00
2022-09-07T16:19:34.903Z,25.30
2022-09-07T16:22:03.119Z,25.20
2022-09-07T16:24:30.203Z,25.20
2022-09-07T16:26:56.998Z,25.10
2022-09-07T16:29:24.529Z,25.10
2022-09-07T16:34:39.740Z,25.20
2022-09-07T16:37:07.178Z,25.20
2022-09-07T16:39:34.583Z,25.10
2022-09-07T16:42:01.407Z,25.00
2022-09-07T16:44:28.033Z,24.90
2022-09-07T16:46:55.008Z,24.90
2022-09-07T16:49:22.485Z,24.80
2022-09-07T16:51:49.881Z,24.60
2022-09-07T16:54:17.538Z,24.30
2022-09-07T16:56:44.365Z,24.30
2022-09-07T16:59:16.483Z,24.30
2022-09-07T17:01:43.249Z,24.30
2022-09-07T17:04:11.535Z,24.40
2022-09-07T17:06:39.847Z,24.30
2022-09-07T17:09:07.639Z,24.20
2022-09-07T17:11:36.507Z,24.10
2022-09-07T17:14:05.380Z,24.10
2022-09-07T17:16:40.081Z,24.00
2022-09-07T17:21:57.712Z,23.90
2022-09-07T17:24:24.594Z,23.90
2022-09-07T17:26:52.533Z,23.80
2022-09-07T17:29:22.352Z,23.80
2022-09-07T17:52:01.226Z,22.90
2022-09-07T17:54:33.683Z,22.70
2022-09-07T17:57:06.424Z,22.70
2022-09-07T18:02:23.571Z,22.50
2022-09-07T18:04:50.819Z,22.30
2022-09-07T18:07:17.717Z,22.20
2022-09-07T18:09:44.558Z,22.00
2022-09-07T18:12:11.255Z,22.00
2022-09-07T18:14:37.904Z,22.00
2022-09-07T18:17:05.779Z,21.80
2022-09-07T18:19:32.425Z,21.70
2022-09-07T18:21:59.515Z,21.60
2022-09-07T18:24:27.316Z,21.50
2022-09-07T18:26:54.124Z,21.30
2022-09-07T18:29:33.682Z,21.20
2022-09-07T18:32:03.008Z,21.20
2022-09-07T18:34:31.942Z,21.20
2022-09-07T18:36:59.726Z,21.10
2022-09-07T18:39:27.100Z,21.10
2022-09-07T18:41:54.586Z,21.10
2022-09-07T18:47:08.634Z,21.00
2022-09-07T18:49:35.355Z,20.90
2022-09-07T18:54:49.542Z,20.70
2022-09-07T18:57:17.055Z,20.60
2022-09-07T18:59:43.997Z,20.50
2022-09-07T19:02:11.151Z,20.50
2022-09-07T19:07:29.574Z,20.20
2022-09-07T19:09:56.615Z,20.10
2022-09-07T19:12:24.111Z,20.00
2022-09-07T19:14:51.003Z,20.00
2022-09-07T19:17:17.864Z,20.00
2022-09-07T19:19:44.689Z,19.90
2022-09-07T19:22:11.435Z,20.00
2022-09-07T19:24:38.197Z,19.90
2022-09-07T19:27:07.155Z,19.80
2022-09-07T19:29:33.856Z,19.80
2022-09-07T19:32:11.903Z,19.60
2022-09-07T19:34:43.634Z,19.60
2022-09-07T19:37:11.278Z,19.40
2022-09-07T19:39:38.163Z,19.40
2022-09-07T19:42:05.784Z,19.30
2022-09-07T19:44:32.768Z,19.20
2022-09-07T19:47:00.450Z,19.30
2022-09-07T19:49:27.645Z,19.30
2022-09-07T19:51:54.438Z,19.30
2022-09-07T19:54:21.282Z,19.30
2022-09-07T19:56:47.963Z,19.20
2022-09-07T19:59:14.762Z,19.20
2022-09-07T20:01:45.869Z,19.10
2022-09-07T20:04:19.642Z,19.10
2022-09-07T20:06:49.549Z,19.10
2022-09-07T20:09:17.477Z,19.00
2022-09-07T20:11:46.718Z,18.90
2022-09-07T20:14:15.225Z,18.80
2022-09-07T20:16:42.145Z,18.70
2022-09-07T20:19:11.864Z,18.50
2022-09-07T20:21:38.564Z,18.50
2022-09-07T20:24:05.857Z,18.40
2022-09-07T20:26:32.714Z,18.50
2022-09-07T20:29:16.782Z,18.40
2022-09-07T20:31:47.099Z,18.30
2022-09-07T20:34:14.281Z,18.20
2022-09-07T20:36:41.484Z,18.20
2022-09-07T20:39:08.149Z,18.30
2022-09-07T20:41:35.370Z,18.20
2022-09-07T20:44:03.858Z,18.20
2022-09-07T20:46:31.599Z,18.10
2022-09-07T20:48:58.720Z,18.20
2022-09-07T20:51:25.653Z,18.20
2022-09-07T20:53:52.738Z,18.20
2022-09-07T20:56:28.016Z,18.10
2022-09-07T20:59:02.499Z,17.90
2022-09-07T21:02:32.517Z,17.80
2022-09-07T21:09:30.581Z,17.70
2022-09-07T21:11:57.354Z,17.60
2022-09-07T21:14:38.874Z,17.60
2022-09-07T21:18:05.871Z,17.70
2022-09-07T21:21:18.264Z,17.70
2022-09-07T21:28:08.922Z,17.60
2022-09-07T21:30:35.643Z,17.60
2022-09-07T21:33:03.229Z,17.60
2022-09-07T21:35:30.016Z,17.60
2022-09-07T21:37:56.880Z,17.70
2022-09-07T21:40:24.830Z,17.70
2022-09-07T21:42:51.949Z,17.70
2022-09-07T21:45:18.691Z,17.70
2022-09-07T21:47:45.380Z,17.50
2022-09-07T21:50:12.163Z,17.50
2022-09-07T21:52:38.918Z,17.40
2022-09-07T21:55:06.418Z,17.40
2022-09-07T21:57:33.043Z,17.40
2022-09-07T21:59:59.700Z,17.50
2022-09-07T22:02:26.314Z,17.50
2022-09-07T22:04:53.015Z,17.50
2022-09-07T22:07:19.653Z,17.50
2022-09-07T22:09:46.432Z,17.50
2022-09-07T22:12:13.124Z,17.50
2022-09-07T22:14:39.745Z,17.50
2022-09-07T22:17:06.455Z,17.40
2022-09-07T22:19:33.048Z,17.40
2022-09-07T22:21:59.739Z,17.40
2022-09-07T22:24:26.594Z,17.40
2022-09-07T22:26:53.260Z,17.40
2022-09-07T22:29:19.989Z,17.40
2022-09-07T22:31:46.722Z,17.40
2022-09-07T22:34:13.364Z,17.30
2022-09-07T22:36:43.062Z,17.30
2022-09-07T22:39:19.390Z,17.20
2022-09-07T22:41:47.254Z,17.30
2022-09-07T22:44:16.917Z,17.30
2022-09-07T22:46:45.652Z,17.20
2022-09-07T22:49:15.024Z,17.20
2022-09-07T22:51:41.762Z,17.20
2022-09-07T22:54:08.624Z,17.10
2022-09-07T22:56:35.869Z,17.10
2022-09-07T22:59:05.487Z,17.10
2022-09-07T23:01:32.788Z,16.90
2022-09-07T23:04:00.235Z,16.80
2022-09-07T23:06:45.493Z,16.80
2022-09-07T23:09:17.367Z,16.70
2022-09-07T23:11:45.843Z,16.80
2022-09-07T23:14:16.089Z,16.80
2022-09-07T23:16:43.740Z,16.80
2022-09-07T23:19:12.679Z,16.80
2022-09-07T23:21:40.201Z,16.90
2022-09-07T23:24:07.596Z,17.00
2022-09-07T23:26:34.220Z,16.90
2022-09-07T23:29:02.920Z,16.90
2022-09-07T23:31:31.319Z,16.80
2022-09-07T23:33:58.718Z,16.80
2022-09-07T23:36:26.350Z,16.80
2022-09-07T23:38:57.113Z,16.70
2022-09-07T23:41:24.899Z,16.60
2022-09-07T23:43:52.602Z,16.60
2022-09-07T23:46:19.848Z,16.50
2022-09-07T23:48:48.305Z,16.40
2022-09-07T23:51:18.739Z,16.30
2022-09-07T23:53:49.507Z,16.30
2022-09-07T23:56:16.143Z,16.30
2022-09-07T23:58:43.087Z,16.30
